Columbia Regional Airport Columbia US
ICAO: KCOU
IATA: COU
Category: Medium
Scheduled Services: Yes

Elevation: 889 ft
TransAlt. 18000 ft.

Airport Communications:
MIZZU APP/DEP:124.375
ATIS:128.45
CTAF:119.3
GND:121.6
RDO:122.2
TWR:119.3
UNICOM:122.95

KCOU Zoom In..

If Map Doesn't Load, Click Here

Runways:

(A) RW 02 length 6501 ft width 150 ft
ILS 110.70 / hdg 18

(B) RW 13 length 4401 ft width 75 ft
---- / hdg 132

(C) RW 20 length 6501 ft width 150 ft
---- / hdg 198

(D) RW 31 length 4401 ft width 75 ft
---- / hdg 312

Location; KCOU
Day. 23 / Time. 07.54 Zulu
* Altimeter: 30.10
* Temperature: 13° c. 55.4°f.
* Wind from: 070° Speed 03 kn.
Dewpoint: 11° c.
Visibility: 10 Statute Miles.
Clouds: Clear (automated report).

KCOU 230754Z AUTO 07003KT 10SM CLR 13/11 A3010 RMK AO2 SLP190 T01280111


Wind From 070°
Speed 03 kn.

 
 
jpsmedia.com for Web Design worldairports.se 2018   terms of use